Time;durP1;ratioP1;P1;durP2;ratioP2;P2;SDS_P1;SDS_P2;PMS_P1;PMS_P2;Temp;Humidity;BMP_temperature;BMP_pressure;BME280_temperature;BME280_humidity;BME280_pressure;Samples;Min_cycle;Max_cycle;Signal;HPM_P1;HPM_P2
2022/01/02 00:02:12;;;;;;;9.45;7.80;;;;;;;9.37;90.30;95818.75;5070968;28;20194;-78
2022/01/02 00:04:46;;;;;;;10.05;9.00;;;;;;;9.37;90.47;95824.66;5073844;28;20186;-76
2022/01/02 00:07:16;;;;;;;10.45;8.25;;;;;;;9.43;90.21;95828.75;5073787;28;20194;-78
2022/01/02 00:09:46;;;;;;;9.27;7.95;;;;;;;9.52;90.37;95821.84;5073896;28;20194;-76
2022/01/02 00:12:15;;;;;;;10.30;8.60;;;;;;;9.42;90.82;95827.91;5074181;28;20301;-76
2022/01/02 00:14:44;;;;;;;13.05;9.23;;;;;;;9.47;90.20;95825.31;5073724;28;20201;-76
2022/01/02 00:17:12;;;;;;;8.30;7.50;;;;;;;9.61;90.25;95830.16;5073625;28;20202;-77
2022/01/02 00:19:40;;;;;;;10.82;9.00;;;;;;;9.58;89.69;95820.06;5073301;28;20194;-78
2022/01/02 00:22:14;;;;;;;9.55;8.65;;;;;;;9.66;89.61;95833.44;5073593;28;20668;-77
2022/01/02 00:24:43;;;;;;;9.32;8.35;;;;;;;9.62;89.81;95822.53;5073586;28;20209;-77
2022/01/02 00:27:12;;;;;;;9.02;8.13;;;;;;;9.60;89.95;95828.50;5073454;28;20198;-77
2022/01/02 00:29:40;;;;;;;11.82;9.40;;;;;;;9.64;89.68;95830.13;5073416;28;20252;-77
2022/01/02 00:32:08;;;;;;;14.55;9.50;;;;;;;9.44;90.49;95823.66;5073674;28;20750;-78
2022/01/02 00:34:35;;;;;;;9.70;8.38;;;;;;;9.53;90.66;95826.06;5073088;28;20214;-76
2022/01/02 00:37:03;;;;;;;9.43;8.43;;;;;;;9.53;90.54;95822.69;5073049;28;20665;-78
2022/01/02 00:39:30;;;;;;;10.32;8.52;;;;;;;9.62;90.38;95816.63;5072148;28;20194;-75
2022/01/02 00:42:04;;;;;;;11.15;8.65;;;;;;;9.58;90.17;95822.59;5072993;28;20260;-77
2022/01/02 00:44:38;;;;;;;10.85;8.63;;;;;;;9.58;90.13;95820.06;5072923;28;20251;-76
2022/01/02 00:47:12;;;;;;;10.77;9.68;;;;;;;9.55;89.85;95829.41;5073065;28;20289;-77
2022/01/02 00:49:41;;;;;;;10.27;8.48;;;;;;;9.61;90.27;95825.09;5073023;28;20626;-78
2022/01/02 00:52:14;;;;;;;8.40;7.60;;;;;;;9.48;90.73;95817.66;5073253;28;20289;-78
2022/01/02 00:54:45;;;;;;;11.25;8.90;;;;;;;9.43;90.78;95821.97;5072950;28;20260;-77
2022/01/02 00:57:18;;;;;;;10.40;9.18;;;;;;;9.52;90.95;95826.06;5073119;28;20671;-77
2022/01/02 00:59:57;;;;;;;9.35;8.43;;;;;;;9.70;90.09;95824.91;5073113;28;20203;-78
2022/01/02 01:02:31;;;;;;;9.73;8.73;;;;;;;9.61;90.05;95820.00;5071184;28;20248;-77
2022/01/02 01:05:02;;;;;;;9.05;8.23;;;;;;;9.52;89.79;95816.75;5070558;28;20201;-77
2022/01/02 01:07:29;;;;;;;8.90;8.00;;;;;;;9.66;89.69;95819.03;5070626;28;20194;-78
2022/01/02 01:09:57;;;;;;;10.45;8.27;;;;;;;9.70;89.04;95829.97;5070369;28;20649;-76
2022/01/02 01:12:26;;;;;;;8.73;7.93;;;;;;;9.70;89.34;95825.75;5070368;28;20194;-77
2022/01/02 01:14:53;;;;;;;10.40;8.85;;;;;;;9.64;88.96;95830.13;5070831;28;20190;-77
2022/01/02 01:17:20;;;;;;;7.93;7.22;;;;;;;9.72;88.82;95835.88;5071799;28;20247;-78
2022/01/02 01:19:46;;;;;;;13.85;8.48;;;;;;;9.72;89.21;95843.47;5064422;28;20253;-77
2022/01/02 01:22:13;;;;;;;9.23;8.25;;;;;;;9.67;89.32;95830.03;5052610;28;20253;-77
2022/01/02 01:24:40;;;;;;;7.72;7.03;;;;;;;9.77;88.85;95831.56;5052807;28;20227;-78
2022/01/02 01:27:09;;;;;;;9.15;8.20;;;;;;;9.73;88.78;95829.94;5052310;28;20242;-76
2022/01/02 01:29:37;;;;;;;8.52;7.72;;;;;;;9.66;89.45;95823.28;5052457;28;20572;-77
2022/01/02 01:32:05;;;;;;;8.80;7.93;;;;;;;9.52;89.76;95821.84;5052177;28;20223;-77
2022/01/02 01:34:32;;;;;;;8.85;7.75;;;;;;;9.55;89.86;95824.31;5052528;28;20264;-77
2022/01/02 01:36:59;;;;;;;8.57;7.78;;;;;;;9.60;89.95;95823.41;5052487;28;20258;-77
2022/01/02 01:39:26;;;;;;;9.63;7.55;;;;;;;9.61;89.67;95827.63;5052489;28;20678;-78
2022/01/02 01:41:55;;;;;;;9.45;8.20;;;;;;;9.75;89.25;95828.19;5052094;28;20284;-77
2022/01/02 01:44:28;;;;;;;8.45;7.75;;;;;;;9.77;89.04;95826.47;5052086;28;20234;-78
2022/01/02 01:46:57;;;;;;;11.00;7.85;;;;;;;9.71;89.03;95836.72;5051979;28;20743;-78
2022/01/02 01:49:27;;;;;;;9.00;8.00;;;;;;;9.45;89.51;95815.19;5052135;28;20234;-78
2022/01/02 01:51:55;;;;;;;8.45;7.50;;;;;;;9.60;89.52;95833.56;5051754;28;20199;-77
2022/01/02 01:54:23;;;;;;;7.97;7.18;;;;;;;9.74;89.16;95836.69;5052227;28;20222;-77
2022/01/02 01:56:51;;;;;;;7.78;6.97;;;;;;;9.70;89.02;95829.97;5051653;28;20191;-76
2022/01/02 01:59:19;;;;;;;7.22;6.57;;;;;;;9.63;89.46;95828.44;5051694;28;20657;-77
2022/01/02 02:01:46;;;;;;;9.10;7.28;;;;;;;9.64;89.04;95825.03;5051907;28;20665;-76
2022/01/02 02:04:15;;;;;;;8.50;7.70;;;;;;;9.78;88.69;95828.16;5052172;28;20231;-76
2022/01/02 02:06:42;;;;;;;8.75;7.32;;;;;;;9.80;88.11;95826.44;5051785;28;20571;-76
2022/01/02 02:09:09;;;;;;;8.30;7.28;;;;;;;9.79;88.06;95825.59;5051897;28;20199;-76
2022/01/02 02:11:37;;;;;;;7.78;7.13;;;;;;;9.80;87.21;95821.34;5051417;28;20191;-76
2022/01/02 02:14:06;;;;;;;9.20;7.70;;;;;;;9.72;87.92;95828.25;5051885;28;20248;-77
2022/01/02 02:16:34;;;;;;;8.32;6.95;;;;;;;9.81;87.41;95818.78;5051865;28;20285;-75
2022/01/02 02:19:01;;;;;;;6.93;6.10;;;;;;;9.75;87.93;95820.59;5052735;28;20844;-76
2022/01/02 02:21:31;;;;;;;7.90;7.13;;;;;;;9.72;88.19;95823.19;5051555;28;20260;-77
2022/01/02 02:23:59;;;;;;;8.15;7.00;;;;;;;9.80;87.94;95816.28;5050813;28;20234;-75
2022/01/02 02:26:26;;;;;;;8.57;7.05;;;;;;;9.75;88.22;95823.13;5050923;28;20200;-77
2022/01/02 02:28:53;;;;;;;7.50;6.90;;;;;;;9.64;88.67;95830.13;5051151;28;20669;-77
2022/01/02 02:31:20;;;;;;;7.65;7.00;;;;;;;9.70;88.71;95825.75;5050203;28;20269;-77
2022/01/02 02:33:47;;;;;;;8.57;7.35;;;;;;;9.74;88.29;95831.59;5050347;28;20246;-75
2022/01/02 02:36:14;;;;;;;8.63;7.82;;;;;;;9.74;88.28;95827.38;5050671;28;20286;-76
2022/01/02 02:38:43;;;;;;;7.75;7.00;;;;;;;9.75;88.25;95829.03;5050522;28;20290;-77
2022/01/02 02:41:09;;;;;;;7.93;7.28;;;;;;;9.76;88.42;95833.25;5050992;28;20329;-77
2022/01/02 02:43:43;;;;;;;9.15;7.07;;;;;;;9.80;88.09;95834.03;5050392;28;20253;-77
2022/01/02 02:49:03;;;;;;;7.80;7.10;;;;;;;9.69;88.35;95825.78;5050843;28;20325;-77
2022/01/02 02:51:39;;;;;;;7.78;7.07;;;;;;;9.63;88.67;95823.34;5051086;28;20195;-76
2022/01/02 02:54:08;;;;;;;7.57;6.97;;;;;;;9.70;88.32;95832.50;5050959;28;20217;-77
2022/01/02 02:56:44;;;;;;;7.85;7.13;;;;;;;9.63;88.58;95828.44;5051101;28;20191;-76
2022/01/02 02:59:12;;;;;;;7.80;7.10;;;;;;;9.65;88.79;95836.88;5051028;28;20241;-77
2022/01/02 03:01:39;;;;;;;8.30;7.32;;;;;;;9.72;88.51;95834.16;5050327;28;20195;-77
2022/01/02 03:04:06;;;;;;;7.90;7.20;;;;;;;9.73;88.78;95835.00;5050682;28;20273;-76
2022/01/02 03:06:33;;;;;;;7.72;6.95;;;;;;;9.69;88.62;95838.47;5050656;28;20569;-78
2022/01/02 03:09:07;;;;;;;8.43;6.93;;;;;;;9.65;88.61;95841.94;5050360;28;20206;-78
2022/01/02 03:11:36;;;;;;;8.45;7.45;;;;;;;9.72;88.34;95843.47;5050228;28;20199;-77
2022/01/02 03:14:04;;;;;;;7.70;6.93;;;;;;;9.72;87.89;95838.41;5050248;28;20195;-78
2022/01/02 03:16:31;;;;;;;8.02;7.22;;;;;;;9.69;88.19;95843.53;5050351;28;20199;-77
2022/01/02 03:18:58;;;;;;;7.30;6.60;;;;;;;9.75;88.05;95845.97;5050119;28;20645;-76
2022/01/02 03:21:25;;;;;;;7.03;6.30;;;;;;;9.80;87.30;95849.28;5050261;28;20195;-76
2022/01/02 03:23:52;;;;;;;7.40;6.80;;;;;;;9.70;87.84;95846.03;5049836;28;20705;-77
2022/01/02 03:26:19;;;;;;;7.20;6.60;;;;;;;9.77;87.76;95841.69;5049980;28;20241;-77
2022/01/02 03:28:48;;;;;;;9.07;7.70;;;;;;;9.81;87.80;95845.88;5049640;28;20194;-76
2022/01/02 03:31:15;;;;;;;7.65;6.93;;;;;;;9.90;87.12;95843.97;5050135;28;20191;-76
2022/01/02 03:33:41;;;;;;;9.95;6.72;;;;;;;9.82;87.90;95847.53;5050032;28;20219;-76
2022/01/02 03:36:08;;;;;;;8.18;7.30;;;;;;;9.82;87.95;95850.09;5049597;28;20245;-77
2022/01/02 03:38:35;;;;;;;8.18;7.32;;;;;;;9.73;88.68;95843.47;5049962;28;20275;-76
2022/01/02 03:41:02;;;;;;;8.50;7.70;;;;;;;9.81;88.27;95845.88;5049528;28;20693;-78
2022/01/02 03:43:29;;;;;;;8.63;7.45;;;;;;;9.72;88.55;95848.56;5049928;28;20661;-76
2022/01/02 03:45:57;;;;;;;8.57;7.22;;;;;;;9.64;89.16;95845.34;5050378;28;20264;-77
2022/01/02 03:48:25;;;;;;;8.30;7.47;;;;;;;9.56;89.71;95842.94;5050229;28;20225;-77
2022/01/02 03:50:51;;;;;;;7.80;6.97;;;;;;;9.68;89.38;95841.84;5050129;28;20218;-77
2022/01/02 03:53:18;;;;;;;7.80;7.13;;;;;;;9.69;88.82;95846.91;5050124;28;20222;-77
2022/01/02 03:55:45;;;;;;;7.45;6.82;;;;;;;9.61;88.65;95835.25;5049789;28;20195;-77
2022/01/02 03:58:11;;;;;;;7.10;6.50;;;;;;;9.75;88.37;95848.50;5049741;28;20605;-78
2022/01/02 04:00:39;;;;;;;6.90;6.30;;;;;;;9.65;88.54;95854.63;5050200;28;20191;-78
2022/01/02 04:03:07;;;;;;;7.10;6.50;;;;;;;9.71;88.36;95851.97;5049794;28;20191;-77
2022/01/02 04:05:33;;;;;;;7.97;6.57;;;;;;;9.65;88.74;95849.56;5049914;28;20287;-76
2022/01/02 04:08:00;;;;;;;8.07;7.35;;;;;;;9.71;88.09;95857.03;5049966;28;20199;-77
2022/01/02 04:10:27;;;;;;;7.22;6.57;;;;;;;9.60;88.73;95858.94;5049531;28;20199;-76
2022/01/02 04:12:54;;;;;;;7.63;6.85;;;;;;;9.54;89.44;95863.25;5050307;28;20248;-76
2022/01/02 04:15:21;;;;;;;7.97;7.18;;;;;;;9.63;89.07;95869.03;5049621;28;20701;-76
2022/01/02 04:17:47;;;;;;;7.35;6.75;;;;;;;9.61;89.06;95871.59;5049903;28;20202;-76
2022/01/02 04:20:18;;;;;;;7.70;7.05;;;;;;;9.57;89.21;95876.75;5049652;28;20199;-77
2022/01/02 04:22:45;;;;;;;8.20;7.38;;;;;;;9.45;89.58;95865.09;5048292;28;20281;-77
2022/01/02 04:25:13;;;;;;;8.32;7.47;;;;;;;9.44;90.07;95873.56;5049432;28;20290;-76
2022/01/02 04:27:41;;;;;;;12.52;8.27;;;;;;;9.42;89.88;95888.81;5050049;28;20195;-76
2022/01/02 04:30:11;;;;;;;7.78;7.07;;;;;;;9.42;90.09;95881.19;5050028;28;20203;-77
2022/01/02 04:32:38;;;;;;;7.72;6.88;;;;;;;9.40;89.89;95852.47;5049564;28;20199;-76
2022/01/02 04:35:05;;;;;;;7.88;7.15;;;;;;;9.46;90.02;95876.91;5049476;28;20771;-76
2022/01/02 04:37:34;;;;;;;8.45;7.07;;;;;;;9.43;89.62;95872.72;5049432;28;20294;-76
2022/01/02 04:40:01;;;;;;;7.00;6.38;;;;;;;9.35;90.88;95873.72;5047941;28;20238;-76
2022/01/02 04:42:27;;;;;;;7.28;6.68;;;;;;;9.29;91.15;95869.59;5047690;28;20202;-76
2022/01/02 04:44:54;;;;;;;7.45;6.85;;;;;;;9.34;90.80;95870.34;5047936;28;20266;-76
2022/01/02 04:47:21;;;;;;;8.38;7.57;;;;;;;9.31;91.15;95882.25;5047474;28;20206;-76
2022/01/02 04:49:48;;;;;;;7.38;6.72;;;;;;;9.33;90.75;95881.34;5051382;28;20673;-76
2022/01/02 04:52:15;;;;;;;7.63;6.90;;;;;;;9.29;90.92;95889.88;5051626;28;20273;-76
2022/01/02 04:54:43;;;;;;;9.70;8.10;;;;;;;9.23;91.20;95884.88;5052026;28;20195;-76
2022/01/02 04:57:10;;;;;;;8.43;7.63;;;;;;;9.42;90.30;95888.81;5053195;28;20207;-76
2022/01/02 04:59:38;;;;;;;8.52;7.65;;;;;;;9.26;90.63;95886.53;5052966;28;20740;-76
2022/01/02 05:02:06;;;;;;;7.80;7.00;;;;;;;9.20;91.38;95890.00;5052863;28;20195;-76
2022/01/02 05:04:32;;;;;;;7.80;7.07;;;;;;;9.09;91.32;95891.88;5052637;28;20227;-76
2022/01/02 05:07:00;;;;;;;9.90;7.28;;;;;;;9.10;92.10;95888.47;5053041;28;20199;-77
2022/01/02 05:09:26;;;;;;;7.85;6.85;;;;;;;9.13;91.60;95884.22;5052625;28;20187;-76
2022/01/02 05:11:54;;;;;;;10.45;7.03;;;;;;;9.26;90.96;95889.91;5053075;28;20620;-76
2022/01/02 05:14:22;;;;;;;11.68;6.53;;;;;;;9.32;90.55;95883.91;5052791;28;20739;-76
2022/01/02 05:16:49;;;;;;;7.25;6.57;;;;;;;9.34;90.33;95880.50;5052445;28;20191;-76
2022/01/02 05:19:15;;;;;;;7.63;7.03;;;;;;;9.25;91.21;95888.25;5052591;28;20276;-76
2022/01/02 05:21:42;;;;;;;6.72;6.05;;;;;;;9.34;90.14;95884.72;5052679;28;20199;-76
2022/01/02 05:24:09;;;;;;;7.72;7.05;;;;;;;9.14;91.16;95887.59;5052412;28;20296;-76
2022/01/02 05:26:36;;;;;;;8.38;7.50;;;;;;;9.13;91.42;95890.97;5052559;28;20245;-76
2022/01/02 05:29:05;;;;;;;7.95;7.25;;;;;;;9.02;91.68;95883.50;5052324;28;20256;-75
2022/01/02 05:31:32;;;;;;;7.95;7.25;;;;;;;8.91;92.00;95892.94;5052179;28;20687;-76
2022/01/02 05:33:58;;;;;;;7.60;6.80;;;;;;;8.96;92.67;95896.28;5052641;28;20265;-76
2022/01/02 05:36:26;;;;;;;8.13;7.32;;;;;;;8.97;92.48;95902.19;5052220;28;20273;-75
2022/01/02 05:38:52;;;;;;;8.00;7.22;;;;;;;9.07;91.95;95903.72;5052237;28;20366;-75
2022/01/02 05:41:19;;;;;;;8.75;7.35;;;;;;;9.13;91.54;95903.66;5051753;28;20648;-76
2022/01/02 05:43:46;;;;;;;8.05;7.20;;;;;;;9.16;91.24;95903.59;5052465;28;20217;-75
2022/01/02 05:46:14;;;;;;;6.80;5.93;;;;;;;9.13;91.53;95901.13;5051770;28;20277;-76
2022/01/02 05:48:42;;;;;;;8.82;8.02;;;;;;;9.04;92.06;95913.91;5052194;28;20199;-76
2022/01/02 05:51:08;;;;;;;6.95;6.28;;;;;;;9.20;90.82;95912.81;5051810;28;20191;-76
2022/01/02 05:53:35;;;;;;;8.05;7.10;;;;;;;9.18;91.20;95912.84;5052139;28;20632;-76
2022/01/02 05:56:02;;;;;;;7.68;6.47;;;;;;;9.08;91.75;95910.47;5051817;28;20728;-76
2022/01/02 05:58:29;;;;;;;7.45;6.78;;;;;;;9.22;90.97;95908.56;5051540;28;20244;-75
2022/01/02 06:00:56;;;;;;;8.35;7.50;;;;;;;9.14;91.39;95905.34;5051458;28;20198;-76
2022/01/02 06:03:24;;;;;;;7.53;6.57;;;;;;;9.32;90.83;95915.19;5051723;28;20191;-75
2022/01/02 06:05:51;;;;;;;8.05;6.63;;;;;;;9.40;90.29;95913.34;5051161;28;20296;-75
2022/01/02 06:08:18;;;;;;;7.05;6.35;;;;;;;9.46;89.86;95908.19;5050313;28;20200;-76
2022/01/02 06:10:45;;;;;;;7.13;6.47;;;;;;;9.35;90.32;95915.16;5051887;28;20261;-76
2022/01/02 06:13:12;;;;;;;7.50;6.85;;;;;;;9.23;90.98;95919.56;5051896;28;20635;-76
2022/01/02 06:15:40;;;;;;;7.63;6.93;;;;;;;9.33;90.14;95914.34;5051605;28;20623;-76
2022/01/02 06:18:07;;;;;;;5.97;5.55;;;;;;;9.43;90.05;95917.56;5051514;28;20739;-76
2022/01/02 06:20:35;;;;;;;6.30;5.80;;;;;;;9.51;89.39;95921.66;5051002;28;20195;-75
2022/01/02 06:23:02;;;;;;;8.30;6.05;;;;;;;9.46;89.47;95928.50;5050735;28;20712;-76
2022/01/02 06:25:29;;;;;;;6.45;5.57;;;;;;;9.42;89.69;95934.47;5049176;28;20231;-76
2022/01/02 06:27:56;;;;;;;7.65;6.20;;;;;;;9.26;89.81;95930.50;5049162;28;20203;-76
2022/01/02 06:30:23;;;;;;;6.65;5.97;;;;;;;9.29;89.63;95935.53;5049229;28;20255;-76
2022/01/02 06:32:55;;;;;;;6.78;6.13;;;;;;;9.39;89.41;95938.78;5049024;28;20206;-75
2022/01/02 06:35:25;;;;;;;6.05;5.53;;;;;;;9.37;88.84;95923.59;5049041;28;20219;-76
2022/01/02 06:37:54;;;;;;;6.18;5.60;;;;;;;9.53;88.21;95939.41;5049052;28;20199;-75
2022/01/02 06:40:22;;;;;;;6.43;5.93;;;;;;;9.54;87.75;95941.91;5050232;28;20726;-75
2022/01/02 06:42:48;;;;;;;5.65;5.25;;;;;;;9.68;87.46;95943.38;5050583;28;20257;-76
2022/01/02 06:45:15;;;;;;;6.95;5.35;;;;;;;9.66;87.23;95943.41;5050758;28;20231;-76
2022/01/02 06:47:43;;;;;;;6.28;5.68;;;;;;;9.72;87.43;95950.09;5051510;28;20199;-77
2022/01/02 06:50:11;;;;;;;5.90;5.38;;;;;;;9.96;86.17;95947.16;5051638;28;20662;-78
2022/01/02 06:52:38;;;;;;;6.47;5.85;;;;;;;10.04;86.11;95947.84;5050907;28;20195;-77
2022/01/02 06:55:09;;;;;;;7.60;5.43;;;;;;;10.01;85.89;95953.00;5050898;28;20187;-77
2022/01/02 06:57:36;;;;;;;5.68;5.28;;;;;;;9.95;86.55;95948.00;5050764;28;20195;-76
2022/01/02 07:00:05;;;;;;;5.63;5.13;;;;;;;10.17;85.82;95959.47;5050876;28;20242;-76
2022/01/02 07:02:31;;;;;;;5.78;5.25;;;;;;;10.12;85.36;95956.19;5050666;28;20199;-77
2022/01/02 07:04:58;;;;;;;5.93;5.35;;;;;;;10.09;85.65;95953.69;5050341;28;20284;-76
2022/01/02 07:07:25;;;;;;;5.13;4.82;;;;;;;10.16;85.32;95962.88;5050402;28;20191;-75
2022/01/02 07:09:52;;;;;;;7.40;5.10;;;;;;;10.34;84.69;95955.84;5050498;28;20264;-76
2022/01/02 07:12:20;;;;;;;7.07;5.88;;;;;;;10.44;83.99;95967.50;5049915;28;20747;-75
2022/01/02 07:14:47;;;;;;;5.20;4.88;;;;;;;10.44;83.95;95954.78;5050545;28;20278;-76
2022/01/02 07:17:14;;;;;;;5.88;5.28;;;;;;;10.36;84.49;95961.72;5050314;28;20645;-76
2022/01/02 07:19:40;;;;;;;6.32;5.63;;;;;;;10.32;84.87;95975.34;5050291;28;20260;-65
2022/01/02 07:22:07;;;;;;;6.13;5.72;;;;;;;11.19;85.77;95970.19;5049882;28;20623;-66
2022/01/02 07:24:34;;;;;;;10.77;9.68;;;;;;;11.92;82.07;95977.91;5050472;28;20195;-65
2022/01/02 07:27:01;;;;;;;13.57;6.97;;;;;;;12.07;78.75;95975.00;5050381;28;20191;-66
2022/01/02 07:29:30;;;;;;;6.97;6.28;;;;;;;12.22;79.29;95978.84;5050373;28;20202;-66
2022/01/02 07:31:57;;;;;;;6.78;6.28;;;;;;;13.32;73.13;95974.16;5050260;28;20628;-65
2022/01/02 07:34:23;;;;;;;9.48;8.07;;;;;;;14.49;69.25;95975.50;5049891;28;20295;-66
2022/01/02 07:36:50;;;;;;;5.93;5.40;;;;;;;15.22;65.11;95964.38;5050024;28;20195;-66
2022/01/02 07:39:17;;;;;;;6.53;5.93;;;;;;;14.86;65.90;95967.38;5049598;28;20191;-66
2022/01/02 07:41:44;;;;;;;7.57;6.78;;;;;;;14.69;67.01;95979.94;5048614;28;20654;-66
2022/01/02 07:44:11;;;;;;;7.55;6.78;;;;;;;15.25;65.93;95974.50;5049824;28;20191;-66
2022/01/02 07:46:39;;;;;;;6.97;6.28;;;;;;;15.50;62.94;95977.81;5049905;28;20300;-66
2022/01/02 07:49:05;;;;;;;7.10;6.60;;;;;;;15.41;64.11;95972.19;5049677;28;20195;-66
2022/01/02 07:51:32;;;;;;;15.13;9.35;;;;;;;14.97;63.96;95972.94;5049767;28;20229;-66
2022/01/02 07:54:00;;;;;;;9.50;7.55;;;;;;;14.43;65.88;95972.31;5050016;28;20191;-66
2022/01/02 07:56:27;;;;;;;6.63;6.03;;;;;;;13.77;67.69;95965.97;5049649;28;20199;-66
2022/01/02 07:58:55;;;;;;;7.47;6.03;;;;;;;13.77;68.32;95968.50;5049917;28;20203;-66
2022/01/02 08:01:22;;;;;;;7.40;6.68;;;;;;;14.02;68.25;95971.97;5047975;28;20708;-65
2022/01/02 08:03:50;;;;;;;5.80;5.30;;;;;;;15.26;65.17;95976.16;5048491;28;20539;-65
2022/01/02 08:06:17;;;;;;;6.85;6.00;;;;;;;16.33;60.62;95965.91;5049210;28;20802;-65
2022/01/02 08:08:45;;;;;;;7.05;5.55;;;;;;;16.70;58.24;95971.28;5049579;28;20202;-65
2022/01/02 08:11:11;;;;;;;8.60;7.20;;;;;;;16.69;58.04;95967.88;5049878;28;20252;-66
2022/01/02 08:13:38;;;;;;;15.30;10.43;;;;;;;16.61;57.92;95972.47;5049925;28;20191;-66
2022/01/02 08:16:05;;;;;;;6.10;5.60;;;;;;;16.78;57.37;95972.63;5049607;28;20246;-65
2022/01/02 08:18:32;;;;;;;8.23;6.38;;;;;;;16.27;59.25;95979.03;5049412;28;20666;-80
2022/01/02 08:21:00;;;;;;;7.38;6.63;;;;;;;15.11;62.27;95974.16;5050250;28;20195;-81
2022/01/02 08:23:27;;;;;;;10.77;6.93;;;;;;;14.41;64.52;95977.47;5054560;28;20557;-78
2022/01/02 08:25:53;;;;;;;6.60;6.00;;;;;;;13.81;66.54;95970.09;5055901;28;20230;-78
2022/01/02 08:28:20;;;;;;;10.07;8.27;;;;;;;14.32;66.33;95974.41;5055457;28;20222;-77
2022/01/02 08:30:47;;;;;;;8.07;6.53;;;;;;;14.38;65.04;95976.72;5055327;28;20267;-77
2022/01/02 08:33:15;;;;;;;7.25;6.50;;;;;;;14.41;65.45;95971.53;5053395;28;20199;-80
2022/01/02 08:35:42;;;;;;;8.82;5.90;;;;;;;14.16;65.94;95976.59;5053611;28;20279;-76
2022/01/02 08:38:10;;;;;;;6.00;5.22;;;;;;;13.80;67.68;95976.09;5053767;28;20195;-77
2022/01/02 08:40:37;;;;;;;4.45;4.15;;;;;;;13.65;68.05;95976.53;5053160;28;20662;-80
2022/01/02 08:43:04;;;;;;;15.02;10.30;;;;;;;13.73;67.86;95964.38;5052915;28;20260;-77
2022/01/02 08:45:32;;;;;;;10.55;8.05;;;;;;;13.43;68.78;95971.25;5053288;28;20304;-75
2022/01/02 08:47:59;;;;;;;4.97;4.30;;;;;;;13.13;68.96;95985.72;5053378;28;20205;-77
2022/01/02 08:50:26;;;;;;;5.82;4.68;;;;;;;12.86;70.37;95983.09;5053535;28;20191;-76
2022/01/02 08:52:53;;;;;;;8.57;6.75;;;;;;;12.86;70.89;95990.75;5053292;28;20553;-79
2022/01/02 08:55:22;;;;;;;6.55;5.47;;;;;;;12.48;71.84;95973.94;5053210;28;20714;-78
2022/01/02 08:57:49;;;;;;;4.88;4.47;;;;;;;12.75;71.28;95982.53;5053371;28;20195;-77
2022/01/02 09:00:17;;;;;;;5.18;4.75;;;;;;;12.94;71.19;95978.59;5053196;28;20195;-78
2022/01/02 09:02:44;;;;;;;6.38;4.28;;;;;;;13.15;69.96;95977.19;5052374;28;20207;-79
2022/01/02 09:05:11;;;;;;;5.20;4.80;;;;;;;13.11;69.66;95987.50;5051157;28;20571;-79
2022/01/02 09:07:38;;;;;;;4.90;4.50;;;;;;;13.59;69.00;95980.16;5051420;28;20245;-76
2022/01/02 09:10:05;;;;;;;4.82;4.43;;;;;;;13.91;68.20;95974.00;5051694;28;20577;-76
2022/01/02 09:12:34;;;;;;;6.50;4.28;;;;;;;14.21;66.68;95967.91;5051747;28;20321;-76
2022/01/02 09:15:00;;;;;;;5.18;3.97;;;;;;;14.48;65.95;95965.34;5052187;28;20202;-75
2022/01/02 09:17:27;;;;;;;3.78;3.58;;;;;;;14.18;66.27;95972.28;5051212;28;20249;-76
2022/01/02 09:19:57;;;;;;;4.70;4.40;;;;;;;13.91;66.75;95968.91;5051139;28;20293;-77
2022/01/02 09:22:24;;;;;;;3.88;3.58;;;;;;;13.60;67.29;95969.06;5050758;28;20201;-76
2022/01/02 09:24:52;;;;;;;4.38;4.07;;;;;;;13.47;66.38;95968.56;5051231;28;20206;-78
2022/01/02 09:27:19;;;;;;;17.92;9.02;;;;;;;13.49;67.64;95959.16;5052366;28;20231;-77
2022/01/02 09:29:47;;;;;;;4.28;3.88;;;;;;;13.17;67.34;95954.16;5051992;28;20245;-77
2022/01/02 09:32:13;;;;;;;6.65;5.70;;;;;;;13.08;67.89;95955.25;5052695;28;20210;-77
2022/01/02 09:34:40;;;;;;;4.70;4.30;;;;;;;13.24;69.23;95948.84;5051977;28;20738;-79
2022/01/02 09:37:07;;;;;;;4.53;4.13;;;;;;;13.33;67.49;95950.28;5052458;28;20739;-78
2022/01/02 09:39:34;;;;;;;4.20;3.90;;;;;;;13.28;67.54;95947.03;5050815;28;20206;-78
2022/01/02 09:42:02;;;;;;;3.85;3.55;;;;;;;13.31;67.82;95939.28;5052709;28;20199;-78
2022/01/02 09:44:30;;;;;;;4.03;3.72;;;;;;;13.35;67.34;95935.78;5052503;28;20286;-76
2022/01/02 09:46:59;;;;;;;3.75;3.45;;;;;;;13.39;66.58;95934.78;5052550;28;20231;-77
2022/01/02 09:49:26;;;;;;;3.92;3.63;;;;;;;13.38;66.88;95919.50;5060438;28;20259;-80
2022/01/02 09:51:52;;;;;;;3.83;3.53;;;;;;;13.65;65.72;95915.25;5060393;28;20206;-79
2022/01/02 09:54:19;;;;;;;3.30;3.10;;;;;;;13.93;65.64;95911.75;5066806;28;20202;-79
2022/01/02 09:56:46;;;;;;;3.42;3.13;;;;;;;13.68;64.70;95916.00;5067215;28;20289;-77
2022/01/02 09:59:13;;;;;;;4.78;3.65;;;;;;;13.53;65.42;95906.28;5068021;28;20248;-79
2022/01/02 10:01:39;;;;;;;4.60;4.30;;;;;;;13.72;66.56;95896.28;5067465;28;20202;-66
2022/01/02 10:04:08;;;;;;;6.28;5.70;;;;;;;14.29;66.13;95909.69;5068830;28;20252;-65
2022/01/02 10:06:40;;;;;;;3.80;3.42;;;;;;;14.62;64.26;95906.84;5066968;28;20222;-65
2022/01/02 10:09:14;;;;;;;4.07;3.75;;;;;;;14.41;62.72;95902.50;5067045;28;20231;-66
2022/01/02 10:11:41;;;;;;;3.25;3.05;;;;;;;14.35;61.74;95893.31;5067832;28;20198;-65
2022/01/02 10:14:10;;;;;;;2.97;2.60;;;;;;;14.75;61.75;95885.06;5066951;28;20259;-65
2022/01/02 10:16:39;;;;;;;3.00;2.65;;;;;;;15.20;59.90;95900.41;5066877;28;20206;-66
2022/01/02 10:19:21;;;;;;;3.03;2.35;;;;;;;15.33;61.11;95890.53;5066634;28;20256;-64
2022/01/02 10:21:56;;;;;;;2.30;2.20;;;;;;;15.54;58.56;95891.41;5067027;28;20194;-65
2022/01/02 10:24:26;;;;;;;3.00;2.80;;;;;;;15.73;58.52;95897.50;5066874;28;21113;-64
2022/01/02 10:27:14;;;;;;;3.40;3.15;;;;;;;15.76;57.67;95881.16;5066857;28;20654;-65
2022/01/02 10:29:44;;;;;;;2.22;2.00;;;;;;;15.55;57.47;95882.84;5070073;28;20248;-65
2022/01/02 10:32:28;;;;;;;2.67;2.55;;;;;;;15.68;58.54;95880.63;5067778;28;20206;-65
2022/01/02 10:35:09;;;;;;;2.38;2.28;;;;;;;15.57;58.57;95874.22;5066439;28;20226;-66
2022/01/02 10:37:35;;;;;;;2.45;2.28;;;;;;;15.99;58.22;95871.63;5066764;28;20787;-67
2022/01/02 10:40:02;;;;;;;2.95;2.75;;;;;;;15.99;57.19;95858.81;5066086;28;20288;-67
2022/01/02 10:42:29;;;;;;;3.05;2.85;;;;;;;15.87;57.66;95866.16;5066852;28;20253;-67
2022/01/02 10:44:57;;;;;;;3.00;2.80;;;;;;;15.54;58.17;95863.25;5066664;28;20199;-66
2022/01/02 10:47:26;;;;;;;2.75;2.55;;;;;;;15.54;58.88;95858.94;5066345;28;20712;-66
2022/01/02 10:50:02;;;;;;;2.58;2.47;;;;;;;15.12;58.63;95847.81;5066482;28;20282;-66
2022/01/02 10:52:31;;;;;;;2.83;2.13;;;;;;;15.40;59.88;95850.13;5066220;28;20195;-75
2022/01/02 10:55:00;;;;;;;2.92;2.72;;;;;;;15.07;58.61;95836.94;5066962;28;20198;-78
2022/01/02 10:57:27;;;;;;;2.97;2.65;;;;;;;14.57;60.25;95847.34;5066008;28;20199;-80
2022/01/02 10:59:57;;;;;;;2.63;2.42;;;;;;;14.61;60.11;95854.00;5066020;28;20247;-77
2022/01/02 11:02:25;;;;;;;3.00;2.60;;;;;;;14.60;60.55;95842.09;5065693;28;20217;-76
2022/01/02 11:04:59;;;;;;;2.97;2.78;;;;;;;14.36;61.03;95845.53;5065805;28;20285;-78
2022/01/02 11:07:27;;;;;;;6.05;4.20;;;;;;;14.45;61.69;95843.50;5065619;28;20726;-75
2022/01/02 11:09:55;;;;;;;3.05;2.50;;;;;;;14.60;60.23;95840.38;5065788;28;20633;-77
2022/01/02 11:12:23;;;;;;;2.83;2.65;;;;;;;14.15;61.75;95845.41;5066177;28;20202;-78
2022/01/02 11:14:52;;;;;;;2.50;2.30;;;;;;;14.36;61.69;95837.84;5065681;28;21116;-79
2022/01/02 11:17:19;;;;;;;2.85;2.65;;;;;;;14.25;62.06;95821.19;5065535;28;20206;-76
2022/01/02 11:19:46;;;;;;;3.67;2.30;;;;;;;14.21;61.26;95834.13;5066242;28;20199;-75
2022/01/02 11:22:22;;;;;;;3.90;3.60;;;;;;;14.19;61.57;95826.50;5065841;28;20603;-77
2022/01/02 11:25:00;;;;;;;3.33;3.05;;;;;;;14.15;62.48;95822.38;5065674;28;20198;-75
2022/01/02 11:27:35;;;;;;;3.33;3.10;;;;;;;14.16;61.83;95818.94;5065826;28;20738;-75
2022/01/02 11:30:34;;;;;;;2.38;2.17;;;;;;;14.19;62.29;95810.34;5064833;28;20194;-75
2022/01/02 11:33:02;;;;;;;2.58;2.38;;;;;;;14.13;61.59;95808.00;5066045;28;20194;-76
2022/01/02 11:35:31;;;;;;;2.60;2.40;;;;;;;14.18;61.23;95804.38;5065770;28;20278;-76
2022/01/02 11:38:01;;;;;;;2.70;2.50;;;;;;;14.08;61.73;95797.13;5065731;28;20206;-75
2022/01/02 11:40:44;;;;;;;4.95;2.78;;;;;;;14.00;62.00;95794.81;5065418;28;20757;-76
2022/01/02 11:43:32;;;;;;;2.50;2.30;;;;;;;14.10;62.01;95791.06;5049514;28;20190;-75
2022/01/02 11:46:15;;;;;;;2.08;1.98;;;;;;;14.12;61.61;95793.53;5065308;28;20720;-77